sensor_id;sensor_type;location;lat;lon;timestamp;pressure;altitude;pressure_sealevel;temperature;humidity
38718;BME280;24468;52.128;9.278;2022-12-10T00:01:50;99934.84;;;-0.04;100.00
38718;BME280;24468;52.128;9.278;2022-12-10T00:04:16;99934.00;;;-0.09;100.00
38718;BME280;24468;52.128;9.278;2022-12-10T00:06:42;99936.38;;;0.17;100.00
38718;BME280;24468;52.128;9.278;2022-12-10T00:09:13;99938.16;;;0.13;100.00
38718;BME280;24468;52.128;9.278;2022-12-10T00:11:40;99939.22;;;-0.02;100.00
38718;BME280;24468;52.128;9.278;2022-12-10T00:14:06;99939.16;;;0.05;100.00
38718;BME280;24468;52.128;9.278;2022-12-10T00:16:32;99946.19;;;0.09;100.00
38718;BME280;24468;52.128;9.278;2022-12-10T00:18:59;99945.34;;;0.05;100.00
38718;BME280;24468;52.128;9.278;2022-12-10T00:21:32;99948.06;;;0.01;100.00
38718;BME280;24468;52.128;9.278;2022-12-10T00:23:59;99953.44;;;-0.09;100.00
38718;BME280;24468;52.128;9.278;2022-12-10T00:26:34;99947.88;;;0.16;100.00
38718;BME280;24468;52.128;9.278;2022-12-10T00:29:03;99955.63;;;0.33;100.00
38718;BME280;24468;52.128;9.278;2022-12-10T00:31:32;99954.84;;;0.25;100.00
38718;BME280;24468;52.128;9.278;2022-12-10T00:34:00;99960.59;;;-0.17;100.00
38718;BME280;24468;52.128;9.278;2022-12-10T00:36:30;99948.09;;;-0.03;100.00
38718;BME280;24468;52.128;9.278;2022-12-10T00:38:56;99945.25;;;0.13;100.00
38718;BME280;24468;52.128;9.278;2022-12-10T00:41:22;99945.44;;;-0.03;100.00
38718;BME280;24468;52.128;9.278;2022-12-10T00:43:48;99946.69;;;0.40;100.00
38718;BME280;24468;52.128;9.278;2022-12-10T00:46:16;99947.97;;;0.05;100.00
38718;BME280;24468;52.128;9.278;2022-12-10T00:48:43;99942.53;;;0.19;100.00
38718;BME280;24468;52.128;9.278;2022-12-10T00:51:19;99953.03;;;0.27;100.00
38718;BME280;24468;52.128;9.278;2022-12-10T00:53:47;99951.38;;;0.18;100.00
38718;BME280;24468;52.128;9.278;2022-12-10T00:56:17;99958.50;;;0.13;100.00
38718;BME280;24468;52.128;9.278;2022-12-10T00:58:43;99950.78;;;-0.09;100.00
38718;BME280;24468;52.128;9.278;2022-12-10T01:01:43;99954.34;;;-0.08;100.00
38718;BME280;24468;52.128;9.278;2022-12-10T01:04:15;99963.19;;;-0.08;100.00
38718;BME280;24468;52.128;9.278;2022-12-10T01:06:52;99961.00;;;0.27;100.00
38718;BME280;24468;52.128;9.278;2022-12-10T01:09:24;99961.88;;;0.30;100.00
38718;BME280;24468;52.128;9.278;2022-12-10T01:11:51;99962.91;;;0.15;100.00
38718;BME280;24468;52.128;9.278;2022-12-10T01:14:24;99970.91;;;0.12;100.00
38718;BME280;24468;52.128;9.278;2022-12-10T01:16:54;99965.34;;;0.32;100.00
38718;BME280;24468;52.128;9.278;2022-12-10T01:19:20;99970.63;;;0.35;100.00
38718;BME280;24468;52.128;9.278;2022-12-10T01:21:51;99972.56;;;0.21;100.00
38718;BME280;24468;52.128;9.278;2022-12-10T01:24:16;99975.94;;;0.37;100.00
38718;BME280;24468;52.128;9.278;2022-12-10T01:26:42;99976.78;;;0.39;100.00
38718;BME280;24468;52.128;9.278;2022-12-10T01:29:09;99974.00;;;0.50;100.00
38718;BME280;24468;52.128;9.278;2022-12-10T01:31:37;99979.16;;;0.62;100.00
38718;BME280;24468;52.128;9.278;2022-12-10T01:34:05;99977.28;;;0.72;100.00
38718;BME280;24468;52.128;9.278;2022-12-10T01:36:40;99983.41;;;0.75;100.00
38718;BME280;24468;52.128;9.278;2022-12-10T01:39:10;99986.00;;;0.78;100.00
38718;BME280;24468;52.128;9.278;2022-12-10T01:41:50;99988.72;;;0.75;100.00
38718;BME280;24468;52.128;9.278;2022-12-10T01:46:47;99981.63;;;0.77;100.00
38718;BME280;24468;52.128;9.278;2022-12-10T01:49:23;99981.66;;;0.73;100.00
38718;BME280;24468;52.128;9.278;2022-12-10T01:51:54;99990.50;;;0.73;100.00
38718;BME280;24468;52.128;9.278;2022-12-10T01:54:28;99983.50;;;0.68;100.00
38718;BME280;24468;52.128;9.278;2022-12-10T01:57:18;99989.09;;;0.44;100.00
38718;BME280;24468;52.128;9.278;2022-12-10T02:00:02;99980.94;;;0.61;100.00
38718;BME280;24468;52.128;9.278;2022-12-10T02:02:58;99989.94;;;0.50;100.00
38718;BME280;24468;52.128;9.278;2022-12-10T02:05:42;99987.19;;;0.56;100.00
38718;BME280;24468;52.128;9.278;2022-12-10T02:08:25;99980.19;;;0.49;100.00
38718;BME280;24468;52.128;9.278;2022-12-10T02:11:19;99990.09;;;0.34;100.00
38718;BME280;24468;52.128;9.278;2022-12-10T02:14:05;99984.72;;;0.40;100.00
38718;BME280;24468;52.128;9.278;2022-12-10T02:16:38;99984.69;;;0.43;100.00
38718;BME280;24468;52.128;9.278;2022-12-10T02:22:17;99978.06;;;0.77;100.00
38718;BME280;24468;52.128;9.278;2022-12-10T02:24:47;99973.28;;;0.35;100.00
38718;BME280;24468;52.128;9.278;2022-12-10T02:27:33;99970.66;;;0.34;100.00
38718;BME280;24468;52.128;9.278;2022-12-10T02:30:03;99968.75;;;0.43;100.00
38718;BME280;24468;52.128;9.278;2022-12-10T02:32:36;99964.97;;;0.66;100.00
38718;BME280;24468;52.128;9.278;2022-12-10T02:35:11;99970.19;;;0.72;100.00
38718;BME280;24468;52.128;9.278;2022-12-10T02:38:29;99973.00;;;0.58;100.00
38718;BME280;24468;52.128;9.278;2022-12-10T02:40:34;99970.41;;;0.55;100.00
38718;BME280;24468;52.128;9.278;2022-12-10T02:43:02;99976.31;;;0.77;100.00
38718;BME280;24468;52.128;9.278;2022-12-10T02:45:29;99975.19;;;0.94;100.00
38718;BME280;24468;52.128;9.278;2022-12-10T02:47:58;99976.13;;;0.91;100.00
38718;BME280;24468;52.128;9.278;2022-12-10T02:50:24;99974.38;;;0.88;100.00
38718;BME280;24468;52.128;9.278;2022-12-10T02:52:50;99972.59;;;0.91;100.00
38718;BME280;24468;52.128;9.278;2022-12-10T02:55:17;99968.38;;;0.73;100.00
38718;BME280;24468;52.128;9.278;2022-12-10T02:58:05;99970.66;;;1.02;100.00
38718;BME280;24468;52.128;9.278;2022-12-10T03:00:37;99969.56;;;1.14;100.00
38718;BME280;24468;52.128;9.278;2022-12-10T03:03:26;99970.38;;;1.19;100.00
38718;BME280;24468;52.128;9.278;2022-12-10T03:06:20;99969.78;;;1.00;100.00
38718;BME280;24468;52.128;9.278;2022-12-10T03:08:58;99976.72;;;1.08;100.00
38718;BME280;24468;52.128;9.278;2022-12-10T03:11:25;99974.94;;;1.09;100.00
38718;BME280;24468;52.128;9.278;2022-12-10T03:14:22;99966.97;;;1.09;100.00
38718;BME280;24468;52.128;9.278;2022-12-10T03:17:00;99969.84;;;0.97;100.00
38718;BME280;24468;52.128;9.278;2022-12-10T03:19:39;99966.16;;;1.05;100.00
38718;BME280;24468;52.128;9.278;2022-12-10T03:22:07;99969.53;;;1.15;100.00
38718;BME280;24468;52.128;9.278;2022-12-10T03:24:35;99968.75;;;1.10;100.00
38718;BME280;24468;52.128;9.278;2022-12-10T03:27:04;99968.63;;;1.18;100.00
38718;BME280;24468;52.128;9.278;2022-12-10T03:29:39;99980.16;;;1.18;100.00
38718;BME280;24468;52.128;9.278;2022-12-10T03:32:07;99976.38;;;1.31;100.00
38718;BME280;24468;52.128;9.278;2022-12-10T03:34:34;99971.09;;;1.28;100.00
38718;BME280;24468;52.128;9.278;2022-12-10T03:37:01;99969.78;;;1.00;100.00
38718;BME280;24468;52.128;9.278;2022-12-10T03:39:27;99971.38;;;1.13;100.00
38718;BME280;24468;52.128;9.278;2022-12-10T03:41:53;99973.94;;;1.18;100.00
38718;BME280;24468;52.128;9.278;2022-12-10T03:44:30;99973.84;;;1.24;100.00
38718;BME280;24468;52.128;9.278;2022-12-10T03:46:56;99967.78;;;1.14;100.00
38718;BME280;24468;52.128;9.278;2022-12-10T03:49:22;99975.59;;;1.26;100.00
38718;BME280;24468;52.128;9.278;2022-12-10T03:51:48;99966.50;;;1.40;100.00
38718;BME280;24468;52.128;9.278;2022-12-10T03:54:13;99967.34;;;1.42;100.00
38718;BME280;24468;52.128;9.278;2022-12-10T03:56:39;99962.84;;;1.48;100.00
38718;BME280;24468;52.128;9.278;2022-12-10T03:59:04;99969.03;;;1.49;100.00
38718;BME280;24468;52.128;9.278;2022-12-10T04:01:30;99976.94;;;1.50;100.00
38718;BME280;24468;52.128;9.278;2022-12-10T04:03:55;99973.59;;;1.39;100.00
38718;BME280;24468;52.128;9.278;2022-12-10T04:06:21;99986.00;;;1.40;100.00
38718;BME280;24468;52.128;9.278;2022-12-10T04:08:47;99987.75;;;1.41;100.00
38718;BME280;24468;52.128;9.278;2022-12-10T04:11:14;99989.81;;;1.22;100.00
38718;BME280;24468;52.128;9.278;2022-12-10T04:13:41;99989.75;;;1.27;100.00
38718;BME280;24468;52.128;9.278;2022-12-10T04:16:27;99998.31;;;1.44;100.00
38718;BME280;24468;52.128;9.278;2022-12-10T04:19:02;99994.69;;;1.51;100.00
38718;BME280;24468;52.128;9.278;2022-12-10T04:21:30;99999.25;;;1.42;100.00
38718;BME280;24468;52.128;9.278;2022-12-10T04:24:18;100000.97;;;1.46;100.00
38718;BME280;24468;52.128;9.278;2022-12-10T04:29:41;100002.94;;;1.35;100.00
38718;BME280;24468;52.128;9.278;2022-12-10T04:32:07;100001.19;;;1.30;100.00
38718;BME280;24468;52.128;9.278;2022-12-10T04:34:32;99997.63;;;1.35;100.00
38718;BME280;24468;52.128;9.278;2022-12-10T04:36:58;99992.81;;;0.98;100.00
38718;BME280;24468;52.128;9.278;2022-12-10T04:39:24;99999.47;;;1.29;100.00
38718;BME280;24468;52.128;9.278;2022-12-10T04:41:50;99995.22;;;1.15;100.00
38718;BME280;24468;52.128;9.278;2022-12-10T04:44:17;99997.31;;;0.94;100.00
38718;BME280;24468;52.128;9.278;2022-12-10T04:46:43;99996.09;;;1.18;100.00
38718;BME280;24468;52.128;9.278;2022-12-10T04:49:09;99993.28;;;1.26;100.00
38718;BME280;24468;52.128;9.278;2022-12-10T04:51:34;99989.19;;;1.03;100.00
38718;BME280;24468;52.128;9.278;2022-12-10T04:54:00;99995.16;;;1.19;100.00
38718;BME280;24468;52.128;9.278;2022-12-10T04:56:26;99994.72;;;1.48;100.00
38718;BME280;24468;52.128;9.278;2022-12-10T04:58:52;100000.69;;;1.61;100.00
38718;BME280;24468;52.128;9.278;2022-12-10T05:01:19;100000.81;;;1.55;100.00
38718;BME280;24468;52.128;9.278;2022-12-10T05:03:45;99999.78;;;1.64;100.00
38718;BME280;24468;52.128;9.278;2022-12-10T05:06:14;100006.78;;;1.69;100.00
38718;BME280;24468;52.128;9.278;2022-12-10T05:08:40;100000.19;;;1.39;100.00
38718;BME280;24468;52.128;9.278;2022-12-10T05:11:19;100001.03;;;1.43;100.00
38718;BME280;24468;52.128;9.278;2022-12-10T05:13:46;99996.63;;;1.40;100.00
38718;BME280;24468;52.128;9.278;2022-12-10T05:16:15;99991.00;;;1.59;100.00
38718;BME280;24468;52.128;9.278;2022-12-10T05:18:41;99999.59;;;1.74;100.00
38718;BME280;24468;52.128;9.278;2022-12-10T05:21:12;99998.84;;;1.66;100.00
38718;BME280;24468;52.128;9.278;2022-12-10T05:23:41;99989.19;;;1.62;100.00
38718;BME280;24468;52.128;9.278;2022-12-10T05:26:14;99991.72;;;1.68;100.00
38718;BME280;24468;52.128;9.278;2022-12-10T05:28:53;99985.91;;;1.46;100.00
38718;BME280;24468;52.128;9.278;2022-12-10T05:31:26;99992.47;;;1.76;100.00
38718;BME280;24468;52.128;9.278;2022-12-10T05:33:54;99989.56;;;1.90;100.00
38718;BME280;24468;52.128;9.278;2022-12-10T05:36:26;100000.97;;;1.98;100.00
38718;BME280;24468;52.128;9.278;2022-12-10T05:38:54;100001.16;;;1.88;100.00
38718;BME280;24468;52.128;9.278;2022-12-10T05:41:27;99997.75;;;1.78;100.00
38718;BME280;24468;52.128;9.278;2022-12-10T05:43:54;100007.38;;;1.87;100.00
38718;BME280;24468;52.128;9.278;2022-12-10T05:46:25;99996.97;;;1.73;100.00
38718;BME280;24468;52.128;9.278;2022-12-10T05:48:51;100009.19;;;1.85;100.00
38718;BME280;24468;52.128;9.278;2022-12-10T05:51:20;100007.38;;;1.87;100.00
38718;BME280;24468;52.128;9.278;2022-12-10T05:53:47;100011.72;;;1.91;100.00
38718;BME280;24468;52.128;9.278;2022-12-10T05:56:16;100010.19;;;1.77;100.00
38718;BME280;24468;52.128;9.278;2022-12-10T05:58:44;100014.06;;;1.58;100.00
38718;BME280;24468;52.128;9.278;2022-12-10T06:01:20;100015.56;;;1.74;100.00
38718;BME280;24468;52.128;9.278;2022-12-10T06:03:46;100020.00;;;1.72;100.00
38718;BME280;24468;52.128;9.278;2022-12-10T06:06:13;100017.56;;;1.60;100.00
38718;BME280;24468;52.128;9.278;2022-12-10T06:08:40;100020.75;;;1.82;100.00
38718;BME280;24468;52.128;9.278;2022-12-10T06:11:09;100022.63;;;1.75;100.00
38718;BME280;24468;52.128;9.278;2022-12-10T06:13:35;100026.91;;;1.30;100.00
38718;BME280;24468;52.128;9.278;2022-12-10T06:16:06;100022.59;;;1.21;100.00
38718;BME280;24468;52.128;9.278;2022-12-10T06:18:32;100025.88;;;1.39;100.00
38718;BME280;24468;52.128;9.278;2022-12-10T06:20:58;100025.56;;;1.59;100.00
38718;BME280;24468;52.128;9.278;2022-12-10T06:23:23;100029.03;;;1.65;100.00
38718;BME280;24468;52.128;9.278;2022-12-10T06:25:49;100025.38;;;1.71;100.00
38718;BME280;24468;52.128;9.278;2022-12-10T06:28:14;100025.78;;;1.46;100.00
38718;BME280;24468;52.128;9.278;2022-12-10T06:30:40;100030.81;;;1.62;100.00
38718;BME280;24468;52.128;9.278;2022-12-10T06:33:05;100032.78;;;1.52;100.00
38718;BME280;24468;52.128;9.278;2022-12-10T06:35:31;100036.19;;;1.59;100.00
38718;BME280;24468;52.128;9.278;2022-12-10T06:37:57;100041.41;;;1.66;100.00
38718;BME280;24468;52.128;9.278;2022-12-10T06:40:22;100035.78;;;1.85;100.00
38718;BME280;24468;52.128;9.278;2022-12-10T06:42:51;100036.66;;;1.84;100.00
38718;BME280;24468;52.128;9.278;2022-12-10T06:45:17;100031.66;;;1.08;100.00
38718;BME280;24468;52.128;9.278;2022-12-10T06:47:42;100043.97;;;1.12;100.00
38718;BME280;24468;52.128;9.278;2022-12-10T06:50:08;100044.97;;;1.05;100.00
38718;BME280;24468;52.128;9.278;2022-12-10T06:52:34;100044.84;;;1.14;100.00
38718;BME280;24468;52.128;9.278;2022-12-10T06:54:59;100038.13;;;1.49;100.00
38718;BME280;24468;52.128;9.278;2022-12-10T06:57:25;100040.84;;;1.46;100.00
38718;BME280;24468;52.128;9.278;2022-12-10T06:59:50;100038.69;;;1.69;100.00
38718;BME280;24468;52.128;9.278;2022-12-10T07:02:16;100044.88;;;1.70;100.00
38718;BME280;24468;52.128;9.278;2022-12-10T07:04:41;100045.09;;;1.56;100.00
38718;BME280;24468;52.128;9.278;2022-12-10T07:07:07;100044.06;;;1.66;100.00
38718;BME280;24468;52.128;9.278;2022-12-10T07:09:33;100048.50;;;1.64;100.00
38718;BME280;24468;52.128;9.278;2022-12-10T07:11:59;100041.13;;;1.27;100.00
38718;BME280;24468;52.128;9.278;2022-12-10T07:14:25;100051.66;;;1.33;100.00
38718;BME280;24468;52.128;9.278;2022-12-10T07:16:51;100052.31;;;1.49;100.00
38718;BME280;24468;52.128;9.278;2022-12-10T07:19:17;100052.09;;;1.62;100.00
38718;BME280;24468;52.128;9.278;2022-12-10T07:21:44;100061.69;;;1.73;100.00
38718;BME280;24468;52.128;9.278;2022-12-10T07:24:14;100061.19;;;1.48;100.00
38718;BME280;24468;52.128;9.278;2022-12-10T07:26:43;100060.81;;;1.13;100.00
38718;BME280;24468;52.128;9.278;2022-12-10T07:29:18;100063.53;;;1.06;100.00
38718;BME280;24468;52.128;9.278;2022-12-10T07:31:45;100074.69;;;1.31;100.00
38718;BME280;24468;52.128;9.278;2022-12-10T07:34:11;100069.22;;;1.44;100.00
38718;BME280;24468;52.128;9.278;2022-12-10T07:36:37;100065.59;;;1.51;100.00
38718;BME280;24468;52.128;9.278;2022-12-10T07:39:06;100068.19;;;1.52;100.00
38718;BME280;24468;52.128;9.278;2022-12-10T07:41:33;100071.56;;;1.65;100.00
38718;BME280;24468;52.128;9.278;2022-12-10T07:43:58;100074.19;;;1.67;100.00
38718;BME280;24468;52.128;9.278;2022-12-10T07:46:28;100088.28;;;1.72;100.00
38718;BME280;24468;52.128;9.278;2022-12-10T07:48:54;100082.09;;;1.70;100.00
38718;BME280;24468;52.128;9.278;2022-12-10T07:51:21;100080.63;;;1.52;100.00
38718;BME280;24468;52.128;9.278;2022-12-10T07:53:50;100084.34;;;1.39;100.00
38718;BME280;24468;52.128;9.278;2022-12-10T07:56:17;100080.28;;;1.73;100.00
38718;BME280;24468;52.128;9.278;2022-12-10T07:58:44;100084.69;;;1.76;100.00
38718;BME280;24468;52.128;9.278;2022-12-10T08:01:13;100092.78;;;1.67;100.00
38718;BME280;24468;52.128;9.278;2022-12-10T08:03:40;100094.69;;;1.60;100.00
38718;BME280;24468;52.128;9.278;2022-12-10T08:06:13;100094.56;;;1.66;100.00
38718;BME280;24468;52.128;9.278;2022-12-10T08:08:41;100088.78;;;1.38;100.00
38718;BME280;24468;52.128;9.278;2022-12-10T08:11:07;100085.00;;;1.54;100.00
38718;BME280;24468;52.128;9.278;2022-12-10T08:13:34;100099.03;;;1.66;100.00
38718;BME280;24468;52.128;9.278;2022-12-10T08:16:06;100093.00;;;1.54;100.00
38718;BME280;24468;52.128;9.278;2022-12-10T08:18:33;100095.59;;;1.58;100.00
38718;BME280;24468;52.128;9.278;2022-12-10T08:21:05;100100.75;;;1.68;100.00
38718;BME280;24468;52.128;9.278;2022-12-10T08:23:30;100096.63;;;1.49;100.00
38718;BME280;24468;52.128;9.278;2022-12-10T08:25:56;100104.75;;;1.37;100.00
38718;BME280;24468;52.128;9.278;2022-12-10T08:28:21;100097.44;;;1.52;100.00
38718;BME280;24468;52.128;9.278;2022-12-10T08:30:48;100109.75;;;1.60;100.00
38718;BME280;24468;52.128;9.278;2022-12-10T08:33:13;100112.25;;;1.70;100.00
38718;BME280;24468;52.128;9.278;2022-12-10T08:35:39;100109.59;;;1.69;100.00
38718;BME280;24468;52.128;9.278;2022-12-10T08:38:04;100110.47;;;1.69;100.00
38718;BME280;24468;52.128;9.278;2022-12-10T08:40:31;100106.09;;;1.67;100.00
38718;BME280;24468;52.128;9.278;2022-12-10T08:42:56;100110.38;;;1.77;100.00
38718;BME280;24468;52.128;9.278;2022-12-10T08:45:22;100107.22;;;1.52;100.00
38718;BME280;24468;52.128;9.278;2022-12-10T08:47:48;100108.38;;;1.32;100.00
38718;BME280;24468;52.128;9.278;2022-12-10T08:50:13;100114.66;;;1.25;100.00
38718;BME280;24468;52.128;9.278;2022-12-10T08:52:39;100104.69;;;1.41;100.00
38718;BME280;24468;52.128;9.278;2022-12-10T08:55:05;100110.03;;;1.40;100.00
38718;BME280;24468;52.128;9.278;2022-12-10T08:57:30;100110.78;;;1.51;100.00
38718;BME280;24468;52.128;9.278;2022-12-10T08:59:56;100119.53;;;1.59;100.00
38718;BME280;24468;52.128;9.278;2022-12-10T09:02:21;100122.47;;;1.98;100.00
38718;BME280;24468;52.128;9.278;2022-12-10T09:04:47;100115.97;;;1.59;100.00
38718;BME280;24468;52.128;9.278;2022-12-10T09:07:15;100119.63;;;1.50;100.00
38718;BME280;24468;52.128;9.278;2022-12-10T09:09:40;100122.72;;;1.81;100.00
38718;BME280;24468;52.128;9.278;2022-12-10T09:12:06;100117.88;;;1.49;100.00
38718;BME280;24468;52.128;9.278;2022-12-10T09:14:31;100122.47;;;1.38;100.00
38718;BME280;24468;52.128;9.278;2022-12-10T09:16:57;100127.25;;;1.76;100.00
38718;BME280;24468;52.128;9.278;2022-12-10T09:19:22;100127.09;;;1.87;100.00
38718;BME280;24468;52.128;9.278;2022-12-10T09:21:48;100134.75;;;2.05;100.00
38718;BME280;24468;52.128;9.278;2022-12-10T09:24:13;100137.19;;;2.19;100.00
38718;BME280;24468;52.128;9.278;2022-12-10T09:26:39;100139.53;;;2.39;100.00
38718;BME280;24468;52.128;9.278;2022-12-10T09:29:04;100153.03;;;2.27;100.00
38718;BME280;24468;52.128;9.278;2022-12-10T09:31:30;100152.16;;;2.28;100.00
38718;BME280;24468;52.128;9.278;2022-12-10T09:33:56;100142.84;;;1.99;100.00
38718;BME280;24468;52.128;9.278;2022-12-10T09:36:22;100147.91;;;1.57;100.00
38718;BME280;24468;52.128;9.278;2022-12-10T09:38:48;100147.91;;;1.55;100.00
38718;BME280;24468;52.128;9.278;2022-12-10T09:41:32;100145.34;;;1.49;100.00
38718;BME280;24468;52.128;9.278;2022-12-10T09:46:56;100144.38;;;1.53;100.00
38718;BME280;24468;52.128;9.278;2022-12-10T09:52:17;100152.50;;;2.06;100.00
38718;BME280;24468;52.128;9.278;2022-12-10T09:57:31;100150.09;;;1.88;100.00
38718;BME280;24468;52.128;9.278;2022-12-10T10:00:09;100154.06;;;2.19;100.00
38718;BME280;24468;52.128;9.278;2022-12-10T10:02:41;100144.78;;;1.86;100.00
38718;BME280;24468;52.128;9.278;2022-12-10T10:07:35;100139.25;;;2.02;100.00
38718;BME280;24468;52.128;9.278;2022-12-10T10:10:30;100141.38;;;1.78;100.00
38718;BME280;24468;52.128;9.278;2022-12-10T10:13:39;100138.22;;;2.12;100.00
38718;BME280;24468;52.128;9.278;2022-12-10T10:16:24;100136.06;;;2.34;100.00
38718;BME280;24468;52.128;9.278;2022-12-10T10:19:02;100132.97;;;2.57;100.00
38718;BME280;24468;52.128;9.278;2022-12-10T10:21:39;100131.09;;;2.63;100.00
38718;BME280;24468;52.128;9.278;2022-12-10T10:24:09;100136.38;;;2.14;100.00
38718;BME280;24468;52.128;9.278;2022-12-10T10:26:38;100141.91;;;2.00;100.00
38718;BME280;24468;52.128;9.278;2022-12-10T10:29:08;100136.38;;;2.15;100.00
38718;BME280;24468;52.128;9.278;2022-12-10T10:31:41;100140.81;;;2.13;100.00
38718;BME280;24468;52.128;9.278;2022-12-10T10:34:20;100134.66;;;2.11;100.00
38718;BME280;24468;52.128;9.278;2022-12-10T10:36:47;100129.75;;;1.87;100.00
38718;BME280;24468;52.128;9.278;2022-12-10T10:39:31;100135.94;;;1.86;100.00
38718;BME280;24468;52.128;9.278;2022-12-10T10:41:59;100136.44;;;2.11;100.00
38718;BME280;24468;52.128;9.278;2022-12-10T10:44:36;100140.00;;;2.11;100.00
38718;BME280;24468;52.128;9.278;2022-12-10T10:47:03;100133.09;;;1.98;100.00
38718;BME280;24468;52.128;9.278;2022-12-10T10:49:48;100137.88;;;1.76;100.00
38718;BME280;24468;52.128;9.278;2022-12-10T10:52:16;100143.75;;;1.98;100.00
38718;BME280;24468;52.128;9.278;2022-12-10T10:54:44;100140.88;;;2.10;100.00
38718;BME280;24468;52.128;9.278;2022-12-10T10:57:24;100150.47;;;2.20;100.00
38718;BME280;24468;52.128;9.278;2022-12-10T11:00:05;100146.25;;;2.06;100.00
38718;BME280;24468;52.128;9.278;2022-12-10T11:02:37;100143.81;;;1.95;100.00
38718;BME280;24468;52.128;9.278;2022-12-10T11:05:27;100141.31;;;1.83;100.00
38718;BME280;24468;52.128;9.278;2022-12-10T11:08:04;100140.56;;;1.74;100.00
38718;BME280;24468;52.128;9.278;2022-12-10T11:10:31;100149.50;;;1.67;100.00
38718;BME280;24468;52.128;9.278;2022-12-10T11:13:06;100145.34;;;2.08;100.00
38718;BME280;24468;52.128;9.278;2022-12-10T11:15:40;100146.06;;;2.19;100.00
38718;BME280;24468;52.128;9.278;2022-12-10T11:18:34;100138.50;;;1.92;100.00
38718;BME280;24468;52.128;9.278;2022-12-10T11:21:17;100138.31;;;2.04;100.00
38718;BME280;24468;52.128;9.278;2022-12-10T11:23:52;100141.97;;;1.98;100.00
38718;BME280;24468;52.128;9.278;2022-12-10T11:26:55;100141.47;;;1.73;100.00
38718;BME280;24468;52.128;9.278;2022-12-10T11:32:04;100136.94;;;2.34;100.00
38718;BME280;24468;52.128;9.278;2022-12-10T11:37:29;100131.53;;;2.39;100.00
38718;BME280;24468;52.128;9.278;2022-12-10T11:43:09;100129.94;;;2.77;100.00
38718;BME280;24468;52.128;9.278;2022-12-10T11:54:44;100138.56;;;2.43;100.00
38718;BME280;24468;52.128;9.278;2022-12-10T12:00:20;100143.56;;;2.61;100.00
38718;BME280;24468;52.128;9.278;2022-12-10T12:09:01;100140.88;;;2.61;100.00
38718;BME280;24468;52.128;9.278;2022-12-10T12:15:00;100139.63;;;2.81;100.00
38718;BME280;24468;52.128;9.278;2022-12-10T12:17:37;100135.25;;;2.77;100.00
38718;BME280;24468;52.128;9.278;2022-12-10T12:20:25;100138.38;;;2.99;100.00
38718;BME280;24468;52.128;9.278;2022-12-10T12:23:46;100131.31;;;2.98;100.00
38718;BME280;24468;52.128;9.278;2022-12-10T12:25:49;100141.28;;;2.88;100.00
38718;BME280;24468;52.128;9.278;2022-12-10T12:28:31;100144.97;;;2.79;100.00
38718;BME280;24468;52.128;9.278;2022-12-10T12:31:12;100140.88;;;2.61;100.00
38718;BME280;24468;52.128;9.278;2022-12-10T12:33:50;100139.03;;;2.65;100.00
38718;BME280;24468;52.128;9.278;2022-12-10T12:36:26;100138.03;;;2.71;100.00
38718;BME280;24468;52.128;9.278;2022-12-10T12:41:43;100147.03;;;2.14;100.00
38718;BME280;24468;52.128;9.278;2022-12-10T12:44:47;100140.75;;;2.19;100.00
38718;BME280;24468;52.128;9.278;2022-12-10T12:50:40;100136.63;;;1.98;100.00
38718;BME280;24468;52.128;9.278;2022-12-10T12:53:13;100150.53;;;2.17;100.00
38718;BME280;24468;52.128;9.278;2022-12-10T12:59:11;100158.22;;;2.34;100.00
38718;BME280;24468;52.128;9.278;2022-12-10T13:05:00;100150.22;;;1.80;100.00
38718;BME280;24468;52.128;9.278;2022-12-10T13:07:31;100149.06;;;1.36;100.00
38718;BME280;24468;52.128;9.278;2022-12-10T13:10:24;100156.94;;;1.44;100.00
38718;BME280;24468;52.128;9.278;2022-12-10T13:13:07;100156.41;;;1.82;100.00
38718;BME280;24468;52.128;9.278;2022-12-10T13:15:37;100153.84;;;1.74;100.00
38718;BME280;24468;52.128;9.278;2022-12-10T13:23:54;100159.88;;;1.86;100.00
38718;BME280;24468;52.128;9.278;2022-12-10T13:26:34;100150.13;;;1.86;100.00
38718;BME280;24468;52.128;9.278;2022-12-10T13:31:57;100146.53;;;1.89;100.00
38718;BME280;24468;52.128;9.278;2022-12-10T13:34:33;100149.66;;;1.58;100.00
38718;BME280;24468;52.128;9.278;2022-12-10T13:37:28;100146.31;;;1.44;100.00
38718;BME280;24468;52.128;9.278;2022-12-10T13:42:37;100163.84;;;2.17;100.00
38718;BME280;24468;52.128;9.278;2022-12-10T13:47:49;100171.78;;;2.19;100.00
38718;BME280;24468;52.128;9.278;2022-12-10T13:56:08;100178.84;;;2.21;
38718;BME280;24468;52.128;9.278;2022-12-10T13:59:23;100177.25;;;2.10;100.00
38718;BME280;24468;52.128;9.278;2022-12-10T14:07:30;100185.22;;;2.11;100.00
38718;BME280;24468;52.128;9.278;2022-12-10T14:09:57;100175.53;;;2.07;100.00
38718;BME280;24468;52.128;9.278;2022-12-10T14:12:33;100178.84;;;2.21;100.00
38718;BME280;24468;52.128;9.278;2022-12-10T14:15:17;100185.63;;;2.41;100.00
38718;BME280;24468;52.128;9.278;2022-12-10T14:17:44;100181.78;;;2.57;100.00
38718;BME280;24468;52.128;9.278;2022-12-10T14:20:18;100183.88;;;2.38;100.00
38718;BME280;24468;52.128;9.278;2022-12-10T14:22:48;100176.56;;;2.51;100.00
38718;BME280;24468;52.128;9.278;2022-12-10T14:25:18;100179.78;;;2.70;100.00
38718;BME280;24468;52.128;9.278;2022-12-10T14:27:50;100179.81;;;2.68;100.00
38718;BME280;24468;52.128;9.278;2022-12-10T14:30:25;100179.72;;;2.22;100.00
38718;BME280;24468;52.128;9.278;2022-12-10T14:32:54;100179.91;;;2.10;100.00
38718;BME280;24468;52.128;9.278;2022-12-10T14:35:24;100177.84;;;2.27;100.00
38718;BME280;24468;52.128;9.278;2022-12-10T14:37:52;100182.03;;;2.43;100.00
38718;BME280;24468;52.128;9.278;2022-12-10T14:40:24;100183.63;;;2.54;100.00
38718;BME280;24468;52.128;9.278;2022-12-10T14:42:59;100192.53;;;2.51;100.00